createdAt,value
2022-12-27T00:00:24.989Z,74.07
2022-12-27T00:02:51.677Z,74.47
2022-12-27T00:05:18.387Z,74.37
2022-12-27T00:07:45.001Z,74.82
2022-12-27T00:10:11.728Z,74.59
2022-12-27T00:12:38.265Z,74.43
2022-12-27T00:15:05.079Z,74.16
2022-12-27T00:17:32.093Z,74.17
2022-12-27T00:19:58.723Z,74.38
2022-12-27T00:22:25.248Z,74.45
2022-12-27T00:24:51.793Z,73.96
2022-12-27T00:27:18.330Z,74.04
2022-12-27T00:29:45.105Z,74.01
2022-12-27T00:32:14.226Z,74.13
2022-12-27T00:34:43.435Z,74.14
2022-12-27T00:37:09.957Z,74.02
2022-12-27T00:39:36.832Z,74.59
2022-12-27T00:42:03.868Z,73.75
2022-12-27T00:44:30.487Z,73.97
2022-12-27T00:46:58.363Z,74.33
2022-12-27T00:49:24.913Z,74.03
2022-12-27T00:51:51.602Z,74.16
2022-12-27T00:54:18.150Z,74.06
2022-12-27T00:56:48.346Z,73.44
2022-12-27T00:59:14.883Z,74.25
2022-12-27T01:01:41.673Z,73.00
2022-12-27T01:04:08.576Z,73.68
2022-12-27T01:06:35.174Z,72.87
2022-12-27T01:09:01.976Z,72.72
2022-12-27T01:11:28.961Z,73.16
2022-12-27T01:13:56.526Z,72.97
2022-12-27T01:16:23.368Z,73.23
2022-12-27T01:18:50.060Z,72.85
2022-12-27T01:21:17.415Z,72.68
2022-12-27T01:23:44.069Z,72.15
2022-12-27T01:26:11.970Z,72.12
2022-12-27T01:28:39.197Z,72.72
2022-12-27T01:31:09.393Z,73.06
2022-12-27T01:33:36.083Z,73.21
2022-12-27T01:36:09.758Z,73.03
2022-12-27T01:38:36.309Z,72.51
2022-12-27T01:41:22.823Z,72.85
2022-12-27T01:43:49.353Z,73.38
2022-12-27T01:46:15.988Z,73.89
2022-12-27T01:48:42.536Z,73.63
2022-12-27T01:51:09.087Z,74.36
2022-12-27T01:53:37.662Z,73.87
2022-12-27T01:56:05.390Z,74.03
2022-12-27T01:58:42.548Z,74.33
2022-12-27T02:01:16.426Z,74.52
2022-12-27T02:04:03.244Z,74.85
2022-12-27T02:06:29.756Z,75.26
2022-12-27T02:09:03.421Z,74.92
2022-12-27T02:11:49.659Z,75.25
2022-12-27T02:14:16.566Z,75.23
2022-12-27T02:16:43.128Z,75.53
2022-12-27T02:19:17.691Z,75.91
2022-12-27T02:21:44.144Z,75.87
2022-12-27T02:24:43.085Z,76.19
2022-12-27T02:27:12.493Z,76.07
2022-12-27T02:29:41.788Z,75.85
2022-12-27T02:32:20.819Z,76.25
2022-12-27T02:35:02.283Z,76.15
2022-12-27T02:37:29.571Z,76.09
2022-12-27T02:39:56.109Z,76.28
2022-12-27T02:42:41.389Z,76.35
2022-12-27T02:45:32.583Z,76.31
2022-12-27T02:48:34.661Z,76.55
2022-12-27T02:51:24.510Z,76.44
2022-12-27T02:53:50.969Z,76.69
2022-12-27T02:56:39.466Z,76.74
2022-12-27T02:59:14.496Z,77.09
2022-12-27T03:02:37.960Z,76.68
2022-12-27T03:05:07.463Z,76.90
2022-12-27T03:07:46.039Z,76.94
2022-12-27T03:10:42.815Z,77.10
2022-12-27T03:13:28.370Z,76.97
2022-12-27T03:16:04.050Z,77.33
2022-12-27T03:18:42.725Z,77.32
2022-12-27T03:21:28.749Z,77.19
2022-12-27T03:24:14.086Z,76.88
2022-12-27T03:26:42.546Z,77.27
2022-12-27T03:29:28.782Z,77.16
2022-12-27T03:32:14.580Z,77.11
2022-12-27T03:34:42.026Z,77.28
2022-12-27T03:37:33.482Z,77.28
2022-12-27T03:40:06.338Z,77.67
2022-12-27T03:42:52.361Z,77.61
2022-12-27T03:45:20.534Z,77.58
2022-12-27T03:47:50.159Z,78.25
2022-12-27T03:50:25.266Z,77.82
2022-12-27T03:52:53.637Z,77.74
2022-12-27T03:55:20.417Z,77.79
2022-12-27T03:57:46.909Z,77.73
2022-12-27T04:00:13.781Z,77.49
2022-12-27T04:02:40.500Z,77.37
2022-12-27T04:05:07.408Z,77.92
2022-12-27T04:07:33.912Z,77.54
2022-12-27T04:10:19.206Z,77.27
2022-12-27T04:13:04.505Z,77.57
2022-12-27T04:15:49.964Z,77.81
2022-12-27T04:18:35.463Z,77.80
2022-12-27T04:21:20.453Z,77.51
2022-12-27T04:24:05.648Z,77.02
2022-12-27T04:26:50.999Z,76.60
2022-12-27T04:29:36.350Z,76.25
2022-12-27T04:32:21.687Z,76.14
2022-12-27T04:34:48.217Z,76.04
2022-12-27T04:37:15.835Z,76.20
2022-12-27T04:39:42.701Z,76.47
2022-12-27T04:42:28.255Z,76.32
2022-12-27T04:45:15.605Z,76.77
2022-12-27T04:48:01.213Z,76.31
2022-12-27T04:50:50.340Z,76.52
2022-12-27T04:53:39.130Z,76.67
2022-12-27T04:56:06.080Z,76.55
2022-12-27T04:58:32.736Z,76.82
2022-12-27T05:01:18.842Z,76.88
2022-12-27T05:03:45.897Z,77.09
2022-12-27T05:06:12.454Z,77.22
2022-12-27T05:08:57.855Z,76.95
2022-12-27T05:11:42.812Z,77.49
2022-12-27T05:14:10.865Z,77.33
2022-12-27T05:16:39.137Z,77.50
2022-12-27T05:19:06.126Z,77.73
2022-12-27T05:21:36.898Z,77.04
2022-12-27T05:24:22.113Z,77.10
2022-12-27T05:26:48.717Z,76.88
2022-12-27T05:29:15.390Z,77.15
2022-12-27T05:31:41.925Z,77.19
2022-12-27T05:34:08.453Z,77.45
2022-12-27T05:36:34.994Z,77.17
2022-12-27T05:39:01.519Z,76.87
2022-12-27T05:41:28.154Z,76.92
2022-12-27T05:43:54.744Z,76.54
2022-12-27T05:46:21.706Z,77.05
2022-12-27T05:48:48.346Z,76.33
2022-12-27T05:51:16.065Z,76.35
2022-12-27T05:53:42.678Z,75.98
2022-12-27T05:56:09.433Z,75.97
2022-12-27T05:58:35.949Z,76.23
2022-12-27T06:01:07.177Z,76.04
2022-12-27T06:03:33.755Z,76.13
2022-12-27T06:06:01.840Z,76.25
2022-12-27T06:08:28.742Z,76.07
2022-12-27T06:11:05.513Z,76.48
2022-12-27T06:13:32.078Z,76.86
2022-12-27T06:16:02.162Z,76.90
2022-12-27T06:18:29.041Z,76.92
2022-12-27T06:20:55.572Z,76.89
2022-12-27T06:23:22.088Z,76.45
2022-12-27T06:25:48.674Z,76.29
2022-12-27T06:28:15.204Z,76.41
2022-12-27T06:30:41.744Z,76.34
2022-12-27T06:33:08.237Z,76.26
2022-12-27T06:35:35.124Z,76.27
2022-12-27T06:38:01.714Z,76.17
2022-12-27T06:40:28.213Z,76.11
2022-12-27T06:42:54.745Z,76.08
2022-12-27T06:45:21.484Z,76.24
2022-12-27T06:47:48.009Z,76.31
2022-12-27T06:50:14.524Z,76.43
2022-12-27T06:52:41.047Z,76.33
2022-12-27T06:55:07.781Z,76.39
2022-12-27T06:57:34.343Z,76.24
2022-12-27T07:00:00.918Z,75.91
2022-12-27T07:02:27.608Z,75.60
2022-12-27T07:04:54.351Z,75.39
2022-12-27T07:07:20.982Z,75.42
2022-12-27T07:09:47.624Z,75.67
2022-12-27T07:12:14.173Z,75.93
2022-12-27T07:14:40.743Z,75.51
2022-12-27T07:17:07.418Z,75.49
2022-12-27T07:19:34.024Z,75.24
2022-12-27T07:22:00.519Z,75.63
2022-12-27T07:24:27.046Z,75.70
2022-12-27T07:26:53.991Z,75.49
2022-12-27T07:29:20.811Z,75.72
2022-12-27T07:31:47.586Z,75.49
2022-12-27T07:34:14.190Z,75.14
2022-12-27T07:36:41.127Z,75.47
2022-12-27T07:39:07.907Z,75.30
2022-12-27T07:41:35.714Z,75.80
2022-12-27T07:44:02.339Z,75.74
2022-12-27T07:46:28.989Z,75.85
2022-12-27T07:48:56.142Z,75.86
2022-12-27T07:51:22.988Z,76.08
2022-12-27T07:53:50.085Z,75.65
2022-12-27T07:56:25.189Z,74.89
2022-12-27T07:58:52.828Z,74.17
2022-12-27T08:01:20.022Z,74.67
2022-12-27T08:03:47.372Z,74.17
2022-12-27T08:06:32.477Z,74.07
2022-12-27T08:08:59.497Z,73.45
2022-12-27T08:11:30.229Z,73.42
2022-12-27T08:13:56.761Z,73.05
2022-12-27T08:16:23.855Z,72.94
2022-12-27T08:18:50.491Z,72.33
2022-12-27T08:21:17.058Z,72.31
2022-12-27T08:23:43.759Z,72.62
2022-12-27T08:26:10.348Z,72.44
2022-12-27T08:28:36.909Z,72.74
2022-12-27T08:31:05.485Z,72.36
2022-12-27T08:33:32.087Z,72.70
2022-12-27T08:35:59.015Z,72.35
2022-12-27T08:38:25.569Z,72.91
2022-12-27T08:40:52.068Z,72.60
2022-12-27T08:43:18.667Z,72.23
2022-12-27T08:45:45.244Z,71.80
2022-12-27T08:48:11.899Z,71.64
2022-12-27T08:50:38.608Z,71.50
2022-12-27T08:53:06.355Z,71.67
2022-12-27T08:55:33.444Z,71.22
2022-12-27T08:58:06.128Z,71.30
2022-12-27T09:00:36.708Z,70.98
2022-12-27T09:03:03.523Z,70.53
2022-12-27T09:05:30.343Z,70.33
2022-12-27T09:07:57.941Z,70.88
2022-12-27T09:10:24.587Z,70.65
2022-12-27T09:12:51.153Z,70.87
2022-12-27T09:15:17.778Z,71.07
2022-12-27T09:17:44.317Z,71.14
2022-12-27T09:20:12.507Z,71.21
2022-12-27T09:22:39.330Z,70.45
2022-12-27T09:25:06.129Z,70.66
2022-12-27T09:27:33.788Z,70.91
2022-12-27T09:30:00.815Z,70.51
2022-12-27T09:32:28.582Z,69.87
2022-12-27T09:34:59.149Z,70.42
2022-12-27T09:37:28.717Z,70.45
2022-12-27T09:39:57.227Z,69.97
2022-12-27T09:42:49.836Z,69.49
2022-12-27T09:45:16.923Z,69.42
2022-12-27T09:47:48.384Z,69.30
2022-12-27T09:50:26.090Z,68.90
2022-12-27T09:52:58.740Z,69.13
2022-12-27T09:55:45.680Z,68.38
2022-12-27T09:58:24.278Z,68.30
2022-12-27T10:00:51.160Z,68.83
2022-12-27T10:03:19.866Z,69.02
2022-12-27T10:05:46.711Z,68.24
2022-12-27T10:08:21.505Z,66.96
2022-12-27T10:11:34.382Z,67.15
2022-12-27T10:14:20.820Z,66.30
2022-12-27T10:16:53.802Z,66.15
2022-12-27T10:19:52.904Z,66.01
2022-12-27T10:22:25.280Z,66.66
2022-12-27T10:24:56.625Z,65.40
2022-12-27T10:27:24.411Z,65.67
2022-12-27T10:29:58.012Z,64.88
2022-12-27T10:32:30.544Z,66.33
2022-12-27T10:34:58.099Z,65.71
2022-12-27T10:37:24.833Z,66.70
2022-12-27T10:39:54.156Z,66.43
2022-12-27T10:42:59.664Z,65.61
2022-12-27T10:45:42.633Z,66.19
2022-12-27T10:48:15.107Z,63.18
2022-12-27T10:50:47.484Z,63.97
2022-12-27T10:53:32.952Z,62.70
2022-12-27T10:56:18.285Z,63.95
2022-12-27T10:58:54.722Z,63.76
2022-12-27T11:01:23.468Z,64.32
2022-12-27T11:03:50.584Z,64.00
2022-12-27T11:06:24.881Z,64.03
2022-12-27T11:08:52.457Z,63.31
2022-12-27T11:11:23.092Z,63.40
2022-12-27T11:13:50.068Z,63.85
2022-12-27T11:16:28.445Z,63.31
2022-12-27T11:18:55.980Z,63.89
2022-12-27T11:21:27.673Z,63.49
2022-12-27T11:24:01.196Z,64.24
2022-12-27T11:26:28.637Z,63.89
2022-12-27T11:28:56.184Z,65.02
2022-12-27T11:31:44.739Z,63.53
2022-12-27T11:34:17.868Z,64.31
2022-12-27T11:36:45.962Z,63.08
2022-12-27T11:39:33.540Z,63.55
2022-12-27T11:42:00.152Z,65.05
2022-12-27T11:44:30.249Z,63.85
2022-12-27T11:46:59.575Z,63.13
2022-12-27T11:49:32.012Z,64.06
2022-12-27T11:51:59.217Z,64.89
2022-12-27T11:54:46.495Z,64.50
2022-12-27T11:57:18.730Z,64.46
2022-12-27T11:59:56.758Z,63.21
2022-12-27T12:02:26.384Z,64.09
2022-12-27T12:04:55.709Z,63.94
2022-12-27T12:07:41.860Z,62.50
2022-12-27T12:10:11.484Z,62.33
2022-12-27T12:12:51.126Z,62.60
2022-12-27T12:15:30.343Z,62.40
2022-12-27T12:17:59.553Z,62.41
2022-12-27T12:20:36.757Z,59.71
2022-12-27T12:23:07.103Z,61.59
2022-12-27T12:26:06.796Z,61.09
2022-12-27T12:29:01.250Z,60.54
2022-12-27T12:31:29.480Z,61.27
2022-12-27T12:34:08.888Z,60.14
2022-12-27T12:36:52.833Z,60.33
2022-12-27T12:39:28.893Z,61.77
2022-12-27T12:41:55.606Z,62.11
2022-12-27T12:44:41.275Z,60.80
2022-12-27T12:47:08.719Z,62.22
2022-12-27T12:49:45.743Z,60.58
2022-12-27T12:52:31.571Z,62.05
2022-12-27T12:55:16.951Z,61.53
2022-12-27T12:58:02.238Z,62.05
2022-12-27T13:00:36.448Z,59.97
2022-12-27T13:03:21.783Z,60.82
2022-12-27T13:06:01.026Z,61.80
2022-12-27T13:08:49.374Z,61.65
2022-12-27T13:11:22.613Z,61.43
2022-12-27T13:13:52.237Z,61.86
2022-12-27T13:16:37.711Z,61.99
2022-12-27T13:19:24.187Z,62.08
2022-12-27T13:21:59.004Z,62.49
2022-12-27T13:24:30.129Z,62.12
2022-12-27T13:27:06.031Z,62.37
2022-12-27T13:29:42.141Z,63.85
2022-12-27T13:32:28.077Z,63.09
2022-12-27T13:34:58.855Z,63.64
2022-12-27T13:37:39.270Z,63.76
2022-12-27T13:40:06.443Z,64.85
2022-12-27T13:42:39.713Z,63.97
2022-12-27T13:45:22.157Z,63.82
2022-12-27T13:47:51.662Z,63.44
2022-12-27T13:50:19.745Z,64.07
2022-12-27T13:53:12.487Z,64.05
2022-12-27T13:55:41.951Z,63.68
2022-12-27T13:58:27.585Z,63.93
2022-12-27T14:01:03.034Z,64.17
2022-12-27T14:03:29.640Z,64.14
2022-12-27T14:09:15.912Z,65.81
2022-12-27T14:11:45.624Z,66.25
2022-12-27T14:14:18.243Z,65.27
2022-12-27T14:16:47.881Z,64.79
2022-12-27T14:19:32.992Z,64.78
2022-12-27T14:22:11.476Z,65.83
2022-12-27T14:24:56.415Z,63.94
2022-12-27T14:27:25.806Z,63.86
2022-12-27T14:30:04.799Z,65.58
2022-12-27T14:32:41.943Z,65.48
2022-12-27T14:35:20.813Z,66.44
2022-12-27T14:37:53.201Z,64.87
2022-12-27T14:40:38.329Z,64.63
2022-12-27T14:43:07.619Z,64.55
2022-12-27T14:45:36.977Z,63.31
2022-12-27T14:48:03.467Z,63.87
2022-12-27T14:50:55.665Z,65.48
2022-12-27T14:53:37.559Z,66.62
2022-12-27T14:56:22.878Z,67.05
2022-12-27T14:58:49.346Z,68.42
2022-12-27T15:01:15.921Z,68.01
2022-12-27T15:03:49.966Z,68.80
2022-12-27T15:06:16.757Z,68.80
2022-12-27T15:08:43.260Z,69.66
2022-12-27T15:11:31.292Z,69.87
2022-12-27T15:14:17.681Z,68.76
2022-12-27T15:16:47.203Z,66.82
2022-12-27T15:19:13.829Z,66.80
2022-12-27T15:21:41.892Z,67.99
2022-12-27T15:24:11.710Z,67.47
2022-12-27T15:26:47.364Z,66.89
2022-12-27T15:29:25.560Z,68.22
2022-12-27T15:32:11.772Z,68.24
2022-12-27T15:34:48.621Z,68.56
2022-12-27T15:37:34.005Z,68.85
2022-12-27T15:40:00.566Z,68.49
2022-12-27T15:42:36.535Z,69.28
2022-12-27T15:45:07.726Z,70.01
2022-12-27T15:47:46.774Z,70.80
2022-12-27T15:50:19.146Z,70.65
2022-12-27T15:53:06.546Z,70.17
2022-12-27T15:55:51.223Z,70.56
2022-12-27T15:58:20.872Z,70.66
2022-12-27T16:01:07.306Z,70.24
2022-12-27T16:03:40.000Z,69.85
2022-12-27T16:06:07.857Z,69.73
2022-12-27T16:08:43.308Z,70.41
2022-12-27T16:11:14.048Z,71.20
2022-12-27T16:13:50.214Z,70.77
2022-12-27T16:16:29.155Z,71.14
2022-12-27T16:19:06.703Z,71.30
2022-12-27T16:21:36.951Z,72.04
2022-12-27T16:24:04.807Z,71.67
2022-12-27T16:26:32.291Z,71.41
2022-12-27T16:29:02.036Z,71.72
2022-12-27T16:31:29.961Z,72.01
2022-12-27T16:34:00.487Z,71.49
2022-12-27T16:36:30.894Z,71.96
2022-12-27T16:39:00.289Z,72.31
2022-12-27T16:41:29.951Z,72.78
2022-12-27T16:44:02.183Z,72.59
2022-12-27T16:46:44.324Z,72.76
2022-12-27T16:49:29.729Z,71.65
2022-12-27T16:52:22.446Z,71.35
2022-12-27T16:54:52.377Z,71.88
2022-12-27T16:57:29.545Z,72.55
2022-12-27T16:59:59.153Z,72.58
2022-12-27T17:02:40.860Z,73.14
2022-12-27T17:05:16.664Z,72.74
2022-12-27T17:07:44.792Z,71.92
2022-12-27T17:10:34.934Z,71.87
2022-12-27T17:13:20.161Z,72.01
2022-12-27T17:16:04.792Z,72.48
2022-12-27T17:18:35.853Z,72.39
2022-12-27T17:21:16.146Z,73.40
2022-12-27T17:23:43.608Z,73.16
2022-12-27T17:26:19.298Z,73.69
2022-12-27T17:28:49.741Z,73.26
2022-12-27T17:31:19.062Z,73.60
2022-12-27T17:33:53.683Z,74.40
2022-12-27T17:36:23.376Z,74.48
2022-12-27T17:39:10.138Z,75.09
2022-12-27T17:42:14.244Z,74.57
2022-12-27T17:44:47.242Z,74.28
2022-12-27T17:47:25.888Z,74.78
2022-12-27T17:49:52.446Z,74.88
2022-12-27T17:52:37.972Z,74.90
2022-12-27T17:55:33.055Z,75.09
2022-12-27T17:58:00.263Z,75.39
2022-12-27T18:00:29.271Z,75.54
2022-12-27T18:02:55.797Z,75.35
2022-12-27T18:05:27.270Z,75.71
2022-12-27T18:08:04.307Z,75.43
2022-12-27T18:10:31.714Z,75.68
2022-12-27T18:12:59.014Z,75.78
2022-12-27T18:15:26.559Z,75.70
2022-12-27T18:17:54.209Z,75.88
2022-12-27T18:20:41.065Z,76.07
2022-12-27T18:23:08.921Z,76.05
2022-12-27T18:25:44.716Z,76.11
2022-12-27T18:28:32.578Z,76.49
2022-12-27T18:31:12.653Z,76.11
2022-12-27T18:33:58.576Z,75.84
2022-12-27T18:36:26.871Z,76.54
2022-12-27T18:38:55.715Z,76.41
2022-12-27T18:41:22.264Z,76.41
2022-12-27T18:43:49.403Z,75.80
2022-12-27T18:46:42.137Z,75.95
2022-12-27T18:49:16.540Z,75.67
2022-12-27T18:51:43.079Z,75.81
2022-12-27T18:54:28.092Z,76.29
2022-12-27T18:56:54.888Z,77.07
2022-12-27T18:59:28.843Z,76.69
2022-12-27T19:01:59.722Z,76.29
2022-12-27T19:04:35.113Z,76.65
2022-12-27T19:07:07.972Z,77.28
2022-12-27T19:09:35.895Z,76.67
2022-12-27T19:12:03.421Z,76.22
2022-12-27T19:14:34.370Z,76.57
2022-12-27T19:17:04.039Z,76.58
2022-12-27T19:19:33.638Z,76.45
2022-12-27T19:22:00.351Z,76.54
2022-12-27T19:24:27.459Z,76.34
2022-12-27T19:26:54.399Z,76.50
2022-12-27T19:29:22.974Z,76.55
2022-12-27T19:31:54.114Z,76.46
2022-12-27T19:34:20.647Z,76.59
2022-12-27T19:36:47.230Z,76.21
2022-12-27T19:39:27.795Z,76.57
2022-12-27T19:42:01.358Z,76.67
2022-12-27T19:44:28.330Z,76.53
2022-12-27T19:46:54.940Z,76.68
2022-12-27T19:49:42.579Z,76.86
2022-12-27T19:52:11.909Z,76.65
2022-12-27T19:54:38.399Z,76.98
2022-12-27T19:57:05.224Z,76.94
2022-12-27T19:59:31.838Z,77.10
2022-12-27T20:01:58.601Z,77.72
2022-12-27T20:04:25.264Z,77.13
2022-12-27T20:06:51.846Z,77.58
2022-12-27T20:09:19.298Z,77.32
2022-12-27T20:11:45.926Z,77.49
2022-12-27T20:14:14.683Z,77.16
2022-12-27T20:16:41.545Z,77.06
2022-12-27T20:19:09.171Z,77.26
2022-12-27T20:21:35.704Z,77.43
2022-12-27T20:24:02.243Z,77.16
2022-12-27T20:26:29.494Z,77.33
2022-12-27T20:28:56.008Z,77.03
2022-12-27T20:31:22.660Z,77.19
2022-12-27T20:33:52.746Z,77.53
2022-12-27T20:36:19.305Z,77.49
2022-12-27T20:38:45.840Z,77.76
2022-12-27T20:41:13.629Z,77.38
2022-12-27T20:43:40.186Z,77.30
2022-12-27T20:46:07.518Z,77.17
2022-12-27T20:48:36.744Z,76.99
2022-12-27T20:51:10.259Z,77.23
2022-12-27T20:53:36.837Z,77.21
2022-12-27T20:56:03.940Z,77.53
2022-12-27T20:58:30.994Z,77.88
2022-12-27T21:00:57.671Z,77.75
2022-12-27T21:03:24.281Z,77.76
2022-12-27T21:05:50.837Z,77.83
2022-12-27T21:08:17.409Z,77.78
2022-12-27T21:10:44.154Z,77.86
2022-12-27T21:13:10.811Z,77.78
2022-12-27T21:15:42.194Z,78.38
2022-12-27T21:18:09.120Z,78.19
2022-12-27T21:20:35.658Z,78.32
2022-12-27T21:23:02.199Z,78.15
2022-12-27T21:25:28.751Z,77.83
2022-12-27T21:27:55.252Z,78.14
2022-12-27T21:30:21.790Z,78.18
2022-12-27T21:32:48.359Z,77.78
2022-12-27T21:35:15.009Z,77.84
2022-12-27T21:37:41.968Z,78.07
2022-12-27T21:40:08.953Z,78.20
2022-12-27T21:42:35.467Z,78.21
2022-12-27T21:45:02.020Z,77.69
2022-12-27T21:47:29.338Z,77.70
2022-12-27T21:49:56.050Z,77.83
2022-12-27T21:52:22.617Z,77.50
2022-12-27T21:54:49.263Z,78.02
2022-12-27T21:57:16.357Z,78.12
2022-12-27T21:59:42.851Z,78.04
2022-12-27T22:02:09.738Z,77.55
2022-12-27T22:04:36.318Z,77.37
2022-12-27T22:07:02.861Z,77.50
2022-12-27T22:09:29.413Z,78.04
2022-12-27T22:11:55.891Z,77.58
2022-12-27T22:14:25.559Z,77.58
2022-12-27T22:16:52.935Z,77.54
2022-12-27T22:19:19.492Z,77.73
2022-12-27T22:21:46.037Z,77.75
2022-12-27T22:24:13.174Z,78.01
2022-12-27T22:26:39.747Z,77.77
2022-12-27T22:29:07.911Z,77.68
2022-12-27T22:31:38.343Z,78.12
2022-12-27T22:34:05.191Z,77.55
2022-12-27T22:36:31.824Z,77.55
2022-12-27T22:38:58.895Z,77.90
2022-12-27T22:41:26.869Z,77.45
2022-12-27T22:43:54.328Z,77.04
2022-12-27T22:46:20.987Z,78.07
2022-12-27T22:48:51.550Z,77.72
2022-12-27T22:51:21.980Z,77.96
2022-12-27T22:53:48.943Z,78.05
2022-12-27T22:56:17.225Z,77.88
2022-12-27T22:58:43.799Z,77.75
2022-12-27T23:01:13.966Z,78.13
2022-12-27T23:03:40.852Z,78.11
2022-12-27T23:06:07.548Z,77.96
2022-12-27T23:08:34.090Z,77.90
2022-12-27T23:11:04.234Z,77.93
2022-12-27T23:13:30.742Z,78.18
2022-12-27T23:15:58.279Z,78.43
2022-12-27T23:18:25.228Z,78.05
2022-12-27T23:21:21.224Z,78.41
2022-12-27T23:23:38.396Z,78.49
2022-12-27T23:26:06.733Z,78.19
2022-12-27T23:28:40.081Z,78.86
2022-12-27T23:31:06.782Z,78.56
2022-12-27T23:33:33.712Z,78.20
2022-12-27T23:36:00.578Z,78.09
2022-12-27T23:38:32.075Z,78.63
2022-12-27T23:40:59.415Z,78.48
2022-12-27T23:46:29.657Z,78.15
2022-12-27T23:48:56.965Z,78.37
2022-12-27T23:51:23.817Z,78.52
2022-12-27T23:53:50.483Z,78.16
2022-12-27T23:56:21.229Z,78.04
2022-12-27T23:58:48.267Z,78.19
